Time;durP1;ratioP1;P1;durP2;ratioP2;P2;SDS_P1;SDS_P2;PMS_P1;PMS_P2;Temp;Humidity;BMP_temperature;BMP_pressure;BME280_temperature;BME280_humidity;BME280_pressure;Samples;Min_cycle;Max_cycle;Signal;HPM_P1;HPM_P2
2021/05/05 00:01:13;;;;;;;2.80;0.52;;;21.00;45.20;;;;;;5028490;28;20079;-35
2021/05/05 00:03:39;;;;;;;2.05;0.68;;;21.00;45.80;;;;;;5028400;28;20112;-40
2021/05/05 00:06:05;;;;;;;0.77;0.60;;;21.00;45.10;;;;;;5029328;28;20026;-51
2021/05/05 00:08:31;;;;;;;1.88;0.47;;;21.00;45.10;;;;;;5029532;28;20025;-36
2021/05/05 00:10:59;;;;;;;0.90;0.40;;;21.00;45.10;;;;;;5029325;28;20466;-36
2021/05/05 00:13:25;;;;;;;0.60;0.50;;;20.90;45.00;;;;;;5028102;28;20017;-36
2021/05/05 00:15:50;;;;;;;0.80;0.50;;;20.90;45.00;;;;;;5028433;28;20386;-36
2021/05/05 00:18:16;;;;;;;0.95;0.40;;;20.90;45.00;;;;;;5028906;28;20060;-35
2021/05/05 00:20:42;;;;;;;1.17;0.43;;;20.90;45.00;;;;;;5029424;28;20022;-36
2021/05/05 00:23:07;;;;;;;1.52;0.73;;;20.90;44.90;;;;;;5028423;28;20436;-38
2021/05/05 00:25:34;;;;;;;0.88;0.47;;;20.90;44.90;;;;;;5032774;28;20512;-36
2021/05/05 00:28:00;;;;;;;1.20;0.50;;;21.00;44.90;;;;;;5031202;28;20029;-40
2021/05/05 00:30:26;;;;;;;1.02;0.52;;;21.00;44.90;;;;;;5030929;28;20044;-36
2021/05/05 00:32:52;;;;;;;0.70;0.40;;;20.90;44.80;;;;;;5032500;28;20053;-47
2021/05/05 00:35:18;;;;;;;1.65;0.93;;;20.90;44.80;;;;;;5030767;28;20079;-37
2021/05/05 00:37:44;;;;;;;1.95;0.70;;;21.00;44.90;;;;;;5034346;28;20026;-36
2021/05/05 00:40:12;;;;;;;0.30;0.20;;;20.90;44.80;;;;;;5032456;28;20461;-36
2021/05/05 00:42:38;;;;;;;1.52;0.50;;;20.90;44.80;;;;;;5033105;28;20029;-35
2021/05/05 00:45:08;;;;;;;0.80;0.50;;;20.90;44.80;;;;;;5032529;28;20026;-48
2021/05/05 00:47:33;;;;;;;1.70;0.40;;;20.90;44.80;;;;;;5034472;28;20034;-36
2021/05/05 00:49:59;;;;;;;1.58;0.82;;;20.90;44.80;;;;;;5033099;28;20120;-36
2021/05/05 00:52:26;;;;;;;1.27;0.50;;;20.90;44.80;;;;;;5033559;28;20049;-35
2021/05/05 00:54:52;;;;;;;0.73;0.40;;;20.90;44.70;;;;;;5034301;28;20454;-35
2021/05/05 00:57:20;;;;;;;0.70;0.40;;;20.90;44.80;;;;;;5033106;28;20080;-36
2021/05/05 00:59:47;;;;;;;1.70;0.70;;;20.90;44.80;;;;;;5033716;28;20056;-40
2021/05/05 01:02:13;;;;;;;0.77;0.43;;;20.90;44.70;;;;;;5033433;28;20025;-36
2021/05/05 01:04:39;;;;;;;1.67;0.50;;;20.90;44.70;;;;;;5033882;28;20367;-36
2021/05/05 01:07:06;;;;;;;1.05;0.50;;;20.90;44.80;;;;;;5033431;28;20437;-51
2021/05/05 01:09:31;;;;;;;1.95;0.50;;;20.90;44.70;;;;;;5032594;28;20029;-37
2021/05/05 01:11:57;;;;;;;1.48;0.38;;;20.90;44.70;;;;;;5033974;28;20517;-36
2021/05/05 01:14:24;;;;;;;0.47;0.47;;;20.90;44.70;;;;;;5031715;28;20385;-37
2021/05/05 01:16:51;;;;;;;1.15;0.40;;;20.90;44.70;;;;;;5029166;28;20021;-37
2021/05/05 01:19:18;;;;;;;0.77;0.35;;;20.90;44.70;;;;;;5064993;28;20124;-37
2021/05/05 01:21:43;;;;;;;1.83;0.70;;;20.90;44.70;;;;;;5033691;28;20038;-37
2021/05/05 01:24:10;;;;;;;0.60;0.50;;;20.90;44.70;;;;;;5050459;28;20501;-39
2021/05/05 01:26:37;;;;;;;0.45;0.40;;;20.90;44.70;;;;;;5051169;28;20112;-36
2021/05/05 01:29:03;;;;;;;3.90;0.35;;;20.90;44.70;;;;;;5034051;28;20140;-37
2021/05/05 01:31:30;;;;;;;1.88;0.38;;;20.90;44.70;;;;;;5050290;28;20033;-37
2021/05/05 01:33:55;;;;;;;1.50;0.50;;;20.90;44.70;;;;;;5034330;28;20497;-37
2021/05/05 01:36:25;;;;;;;0.93;0.50;;;20.90;44.60;;;;;;5050264;28;20037;-37
2021/05/05 01:38:51;;;;;;;0.38;0.22;;;20.90;44.70;;;;;;5051015;28;20041;-36
2021/05/05 01:41:18;;;;;;;0.55;0.40;;;20.90;44.60;;;;;;5049898;28;20064;-37
2021/05/05 01:43:43;;;;;;;1.35;0.50;;;20.90;44.60;;;;;;5050846;28;20671;-37
2021/05/05 01:46:11;;;;;;;0.90;0.50;;;20.90;44.60;;;;;;5033431;28;20021;-52
2021/05/05 01:48:36;;;;;;;0.82;0.50;;;20.90;44.70;;;;;;5050901;28;20467;-36
2021/05/05 01:51:02;;;;;;;0.38;0.30;;;20.80;44.60;;;;;;5034000;28;20068;-37
2021/05/05 01:53:28;;;;;;;0.63;0.40;;;20.90;44.60;;;;;;5049842;28;20021;-37
2021/05/05 01:55:54;;;;;;;0.40;0.30;;;20.80;44.60;;;;;;5034179;28;20901;-36
2021/05/05 01:58:19;;;;;;;1.08;0.40;;;20.80;44.60;;;;;;5049483;28;20572;-37
2021/05/05 02:00:45;;;;;;;1.15;0.38;;;20.90;44.70;;;;;;5047578;28;20096;-37
2021/05/05 02:03:11;;;;;;;0.75;0.40;;;20.80;44.50;;;;;;5032258;28;20478;-41
2021/05/05 02:05:37;;;;;;;1.75;0.50;;;20.80;44.50;;;;;;5032731;28;20032;-37
2021/05/05 02:08:04;;;;;;;1.50;0.40;;;20.90;44.60;;;;;;5032664;28;20525;-36
2021/05/05 02:10:29;;;;;;;0.57;0.40;;;20.80;44.50;;;;;;5028708;28;20636;-36
2021/05/05 02:12:55;;;;;;;0.85;0.45;;;20.80;44.50;;;;;;5032976;28;20036;-36
2021/05/05 02:15:22;;;;;;;0.63;0.30;;;20.80;44.50;;;;;;5029985;28;20026;-37
2021/05/05 02:17:51;;;;;;;0.73;0.30;;;20.80;45.20;;;;;;5032709;28;20030;-37
2021/05/05 02:20:20;;;;;;;1.85;0.50;;;20.80;44.50;;;;;;5031845;28;20382;-37
2021/05/05 02:22:47;;;;;;;1.02;0.45;;;20.80;44.50;;;;;;5031312;28;20073;-36
2021/05/05 02:25:13;;;;;;;0.85;0.47;;;20.80;44.50;;;;;;5031576;28;20025;-37
2021/05/05 02:27:39;;;;;;;0.75;0.32;;;20.80;44.50;;;;;;5032413;28;20394;-37
2021/05/05 02:30:07;;;;;;;0.73;0.60;;;20.80;44.50;;;;;;5032397;28;20377;-37
2021/05/05 02:32:34;;;;;;;0.90;0.40;;;20.80;44.50;;;;;;5031760;28;20196;-37
2021/05/05 02:35:01;;;;;;;1.50;0.47;;;20.80;44.60;;;;;;5032432;28;20033;-36
2021/05/05 02:37:26;;;;;;;1.15;0.45;;;20.80;44.60;;;;;;5031338;28;20056;-37
2021/05/05 02:39:52;;;;;;;1.65;0.50;;;20.80;44.50;;;;;;5030834;28;20069;-36
2021/05/05 02:42:19;;;;;;;0.80;0.40;;;20.80;44.50;;;;;;5031538;28;20056;-37
2021/05/05 02:44:48;;;;;;;1.10;0.47;;;20.80;44.50;;;;;;5030365;28;20030;-37
2021/05/05 02:47:15;;;;;;;1.75;0.70;;;20.80;44.50;;;;;;5029972;28;20116;-37
2021/05/05 02:49:41;;;;;;;1.75;0.38;;;20.80;44.50;;;;;;5032403;28;20125;-37
2021/05/05 02:52:07;;;;;;;0.90;0.40;;;20.80;44.50;;;;;;5030664;28;20550;-37
2021/05/05 02:54:33;;;;;;;0.55;0.40;;;20.80;44.50;;;;;;5031400;28;20037;-37
2021/05/05 02:56:59;;;;;;;0.75;0.30;;;20.80;44.50;;;;;;5031508;28;20063;-37
2021/05/05 02:59:25;;;;;;;1.33;0.40;;;20.80;44.50;;;;;;5030945;28;20084;-36
2021/05/05 03:01:55;;;;;;;0.75;0.40;;;20.80;44.50;;;;;;5030618;28;20030;-37
2021/05/05 03:04:21;;;;;;;1.25;0.40;;;20.80;44.50;;;;;;5029217;28;20035;-37
2021/05/05 03:06:47;;;;;;;1.00;0.40;;;20.80;44.50;;;;;;5031486;28;20021;-36
2021/05/05 03:09:13;;;;;;;1.23;0.47;;;20.80;44.50;;;;;;5031097;28;20029;-52
2021/05/05 03:11:39;;;;;;;1.17;0.40;;;20.80;44.50;;;;;;5032428;28;20025;-39
2021/05/05 03:14:04;;;;;;;0.52;0.20;;;20.80;44.50;;;;;;5030553;28;20026;-37
2021/05/05 03:16:30;;;;;;;1.08;0.40;;;20.80;44.50;;;;;;5031269;28;20180;-36
2021/05/05 03:18:56;;;;;;;1.77;0.40;;;20.80;44.50;;;;;;5031765;28;20029;-36
2021/05/05 03:21:22;;;;;;;1.45;0.85;;;20.80;44.60;;;;;;5031089;28;20060;-37
2021/05/05 03:23:48;;;;;;;0.40;0.40;;;20.80;44.50;;;;;;5031846;28;20405;-37
2021/05/05 03:26:14;;;;;;;1.90;0.63;;;20.80;44.60;;;;;;5031238;28;20025;-44
2021/05/05 03:28:40;;;;;;;0.57;0.40;;;20.80;44.50;;;;;;5030604;28;20363;-37
2021/05/05 03:31:06;;;;;;;2.65;0.40;;;20.80;44.50;;;;;;5030385;28;20391;-37
2021/05/05 03:33:32;;;;;;;0.90;0.30;;;20.80;44.60;;;;;;5030890;28;20018;-37
2021/05/05 03:35:58;;;;;;;0.63;0.45;;;20.80;44.60;;;;;;5031843;28;20030;-37
2021/05/05 03:38:24;;;;;;;0.50;0.38;;;20.80;44.50;;;;;;5030580;28;20101;-37
2021/05/05 03:40:49;;;;;;;1.63;0.40;;;20.80;44.50;;;;;;5030512;28;20030;-36
2021/05/05 03:43:15;;;;;;;1.33;0.30;;;20.80;44.50;;;;;;5029600;28;20025;-36
2021/05/05 03:45:41;;;;;;;0.73;0.35;;;20.80;44.50;;;;;;5013799;28;20022;-36
2021/05/05 03:48:08;;;;;;;0.40;0.30;;;20.80;44.50;;;;;;5031881;28;20030;-36
2021/05/05 03:50:35;;;;;;;0.60;0.30;;;20.80;44.50;;;;;;5030943;28;20025;-36
2021/05/05 03:53:00;;;;;;;1.17;0.40;;;20.80;44.50;;;;;;5031928;28;20084;-37
2021/05/05 03:55:26;;;;;;;0.77;0.38;;;20.80;44.50;;;;;;5030647;28;20029;-36
2021/05/05 03:57:52;;;;;;;0.82;0.30;;;20.80;44.50;;;;;;5029814;28;20059;-37
2021/05/05 04:00:18;;;;;;;0.38;0.30;;;20.80;44.50;;;;;;5032750;28;20128;-37
2021/05/05 04:02:44;;;;;;;0.90;0.38;;;20.80;44.50;;;;;;5034798;28;20478;-36
2021/05/05 04:05:10;;;;;;;1.05;0.40;;;20.80;44.50;;;;;;5033802;28;20484;-37
2021/05/05 04:07:36;;;;;;;1.23;0.22;;;20.80;44.50;;;;;;5034523;28;20033;-36
2021/05/05 04:10:03;;;;;;;1.92;0.40;;;20.80;44.50;;;;;;5033987;28;20398;-36
2021/05/05 04:12:29;;;;;;;0.77;0.38;;;20.80;44.50;;;;;;5034110;28;20100;-36
2021/05/05 04:14:56;;;;;;;0.90;0.40;;;20.80;44.50;;;;;;5035072;28;20108;-35
2021/05/05 04:17:22;;;;;;;0.30;0.30;;;20.80;44.50;;;;;;5034175;28;20029;-36
2021/05/05 04:19:48;;;;;;;0.75;0.30;;;20.80;44.50;;;;;;5034483;28;20029;-36
2021/05/05 04:22:14;;;;;;;0.32;0.30;;;20.80;44.50;;;;;;5034296;28;20021;-50
2021/05/05 04:24:39;;;;;;;0.80;0.50;;;20.80;44.50;;;;;;5034768;28;20455;-36
2021/05/05 04:27:05;;;;;;;0.82;0.20;;;20.80;44.40;;;;;;5034826;28;20036;-36
2021/05/05 04:29:31;;;;;;;1.85;0.30;;;20.80;44.50;;;;;;5032718;28;20073;-37
2021/05/05 04:31:58;;;;;;;0.90;0.32;;;20.80;44.50;;;;;;5034472;28;20041;-36
2021/05/05 04:34:25;;;;;;;1.58;0.22;;;20.80;44.50;;;;;;5033751;28;20108;-36
2021/05/05 04:36:50;;;;;;;1.90;0.57;;;20.80;44.50;;;;;;5034621;28;20068;-36
2021/05/05 04:39:16;;;;;;;0.55;0.30;;;20.80;44.50;;;;;;5032474;28;20053;-37
2021/05/05 04:41:42;;;;;;;0.63;0.30;;;20.80;44.50;;;;;;5034629;28;20458;-36
2021/05/05 04:44:08;;;;;;;0.95;0.50;;;20.80;44.50;;;;;;5034137;28;20030;-36
2021/05/05 04:46:34;;;;;;;1.50;0.30;;;20.80;44.50;;;;;;5033797;28;20025;-36
2021/05/05 04:49:01;;;;;;;1.75;0.55;;;20.80;44.50;;;;;;5034026;28;20029;-36
2021/05/05 04:51:26;;;;;;;1.00;0.43;;;20.80;44.50;;;;;;5031947;28;20482;-37
2021/05/05 04:53:52;;;;;;;2.35;0.50;;;20.80;44.40;;;;;;5030368;28;20079;-37
2021/05/05 04:56:18;;;;;;;1.10;0.20;;;20.80;44.40;;;;;;5031652;28;20061;-37
2021/05/05 04:58:44;;;;;;;1.48;0.40;;;20.80;44.40;;;;;;5030831;28;20049;-36
2021/05/05 05:01:10;;;;;;;0.70;0.35;;;20.80;44.50;;;;;;5032416;28;20083;-36
2021/05/05 05:03:35;;;;;;;0.38;0.20;;;20.80;44.40;;;;;;5031090;28;20032;-36
2021/05/05 05:06:01;;;;;;;0.77;0.30;;;20.80;44.40;;;;;;5032466;28;20060;-36
2021/05/05 05:08:30;;;;;;;0.85;0.43;;;20.80;44.50;;;;;;5029845;28;20026;-37
2021/05/05 05:10:56;;;;;;;0.88;0.28;;;20.80;44.50;;;;;;5031150;28;20091;-40
2021/05/05 05:13:21;;;;;;;0.75;0.40;;;20.80;44.40;;;;;;5031978;28;20021;-36
2021/05/05 05:15:47;;;;;;;0.38;0.28;;;20.80;44.40;;;;;;5033761;28;20026;-36
2021/05/05 05:18:13;;;;;;;0.80;0.30;;;20.80;44.40;;;;;;5033417;28;20060;-51
2021/05/05 05:20:39;;;;;;;1.02;0.30;;;20.80;44.40;;;;;;5033140;28;20025;-36
2021/05/05 05:23:04;;;;;;;6.38;0.50;;;20.80;44.40;;;;;;5032593;28;20033;-36
2021/05/05 05:25:30;;;;;;;1.05;0.30;;;20.80;44.60;;;;;;5032703;28;20151;-36
2021/05/05 05:27:56;;;;;;;4.63;0.35;;;20.80;44.60;;;;;;5032219;28;20025;-36
2021/05/05 05:30:23;;;;;;;1.58;0.30;;;20.80;44.60;;;;;;5032576;28;20452;-36
2021/05/05 05:32:49;;;;;;;0.85;0.50;;;20.80;44.70;;;;;;5033362;28;20033;-36
2021/05/05 05:35:16;;;;;;;0.68;0.32;;;20.80;44.80;;;;;;5031952;28;20489;-51
2021/05/05 05:37:42;;;;;;;1.60;0.77;;;20.80;44.80;;;;;;5033489;28;20021;-36
2021/05/05 05:40:09;;;;;;;1.33;0.35;;;20.80;45.00;;;;;;5032868;28;20080;-37
2021/05/05 05:42:34;;;;;;;0.90;0.35;;;20.80;45.00;;;;;;5033360;28;20561;-36
2021/05/05 05:45:00;;;;;;;0.68;0.32;;;20.80;45.10;;;;;;5033128;28;20136;-36
2021/05/05 05:47:26;;;;;;;2.67;0.75;;;20.90;45.30;;;;;;5029331;28;20032;-41
2021/05/05 05:49:52;;;;;;;3.97;0.50;;;20.90;45.20;;;;;;5033208;28;20390;-37
2021/05/05 05:52:18;;;;;;;3.30;0.82;;;20.80;45.40;;;;;;5064190;28;20083;-49
2021/05/05 05:54:43;;;;;;;6.00;1.05;;;20.90;45.60;;;;;;5031698;28;20032;-36
2021/05/05 05:57:09;;;;;;;2.40;0.60;;;20.90;46.70;;;;;;5031449;28;20065;-36
2021/05/05 05:59:35;;;;;;;5.40;1.15;;;20.90;46.90;;;;;;5032418;28;20033;-36
2021/05/05 06:02:01;;;;;;;5.55;0.77;;;20.90;47.20;;;;;;5033265;28;20033;-36
2021/05/05 06:04:27;;;;;;;7.93;0.85;;;20.90;47.50;;;;;;5031669;28;20033;-36
2021/05/05 06:06:52;;;;;;;7.93;1.13;;;20.90;47.50;;;;;;5032720;28;20101;-37
2021/05/05 06:09:18;;;;;;;8.95;1.10;;;20.80;47.50;;;;;;5028653;28;20029;-51
2021/05/05 06:11:44;;;;;;;4.13;0.90;;;20.90;48.00;;;;;;5031623;28;20427;-36
2021/05/05 06:14:12;;;;;;;7.63;1.02;;;20.90;48.10;;;;;;5031114;28;20056;-37
2021/05/05 06:16:38;;;;;;;9.98;1.10;;;20.80;48.00;;;;;;5030066;28;20169;-36
2021/05/05 06:19:04;;;;;;;13.13;1.23;;;20.80;47.90;;;;;;5031984;28;20505;-36
2021/05/05 06:21:29;;;;;;;7.85;1.20;;;20.80;47.80;;;;;;5030859;28;20100;-36
2021/05/05 06:23:55;;;;;;;4.57;1.00;;;20.90;48.00;;;;;;5031153;28;20108;-36
2021/05/05 06:26:21;;;;;;;4.75;0.90;;;20.80;47.90;;;;;;5031219;28;20030;-36
2021/05/05 06:28:47;;;;;;;4.75;1.15;;;20.80;47.80;;;;;;5030929;28;20029;-36
2021/05/05 06:31:13;;;;;;;4.40;1.02;;;20.90;48.50;;;;;;5032007;28;20033;-36
2021/05/05 06:33:39;;;;;;;6.63;1.20;;;20.80;47.60;;;;;;5031382;28;20096;-36
2021/05/05 06:36:06;;;;;;;5.80;1.00;;;20.80;47.60;;;;;;5032184;28;20032;-37
2021/05/05 06:38:31;;;;;;;9.32;1.08;;;20.80;47.60;;;;;;5030091;28;20095;-36
2021/05/05 06:40:57;;;;;;;5.70;1.45;;;20.80;47.50;;;;;;5025523;28;20032;-38
2021/05/05 06:43:23;;;;;;;6.20;0.90;;;20.80;47.50;;;;;;5031202;28;20164;-36
2021/05/05 06:45:48;;;;;;;8.57;1.00;;;20.80;48.00;;;;;;5031026;28;20025;-36
2021/05/05 06:48:14;;;;;;;1.95;0.82;;;20.80;47.30;;;;;;5064164;28;20030;-36
2021/05/05 06:50:40;;;;;;;6.40;0.90;;;20.80;47.20;;;;;;5030836;28;20521;-36
2021/05/05 06:53:05;;;;;;;5.68;0.73;;;20.80;47.20;;;;;;5030779;28;20481;-38
2021/05/05 06:55:31;;;;;;;11.70;1.38;;;20.80;47.30;;;;;;5030918;28;20028;-36
2021/05/05 06:57:57;;;;;;;4.90;1.40;;;20.80;47.60;;;;;;5031822;28;20050;-36
2021/05/05 07:00:23;;;;;;;2.40;0.80;;;20.80;47.50;;;;;;5030943;28;20494;-36
2021/05/05 07:02:48;;;;;;;4.45;0.90;;;20.80;47.40;;;;;;5031870;28;20351;-36
2021/05/05 07:05:14;;;;;;;3.28;0.57;;;20.80;47.30;;;;;;5031856;28;20056;-36
2021/05/05 07:07:40;;;;;;;3.83;0.77;;;20.80;47.30;;;;;;5030667;28;20132;-36
2021/05/05 07:10:08;;;;;;;4.32;0.80;;;20.80;47.10;;;;;;5031464;28;20109;-37
2021/05/05 07:12:33;;;;;;;7.97;1.10;;;20.80;47.20;;;;;;5029681;28;20117;-36
2021/05/05 07:14:59;;;;;;;5.45;1.50;;;20.80;47.10;;;;;;5031650;28;20068;-36
2021/05/05 07:17:25;;;;;;;3.05;0.80;;;20.80;47.00;;;;;;5031025;28;20067;-36
2021/05/05 07:19:50;;;;;;;3.35;0.80;;;20.80;47.00;;;;;;5030371;28;20030;-36
2021/05/05 07:22:20;;;;;;;2.80;0.60;;;20.80;46.90;;;;;;5030425;28;20382;-36
2021/05/05 07:24:47;;;;;;;5.28;1.35;;;20.80;46.90;;;;;;5031226;28;20072;-36
2021/05/05 07:27:13;;;;;;;2.13;0.80;;;20.80;46.70;;;;;;5031903;28;20037;-36
2021/05/05 07:29:40;;;;;;;1.92;0.70;;;20.80;46.70;;;;;;5012993;28;20037;-36
2021/05/05 07:32:06;;;;;;;4.72;0.90;;;20.80;46.70;;;;;;5034152;28;20025;-39
2021/05/05 07:34:32;;;;;;;5.68;0.90;;;20.80;46.60;;;;;;5031083;28;20053;-37
2021/05/05 07:37:29;;;;;;;3.60;1.13;;;20.80;46.60;;;;;;5034762;28;20466;-36
2021/05/05 07:45:20;;;;;;;5.22;0.70;;;20.80;46.30;;;;;;5035461;28;20031;-36
2021/05/05 07:47:50;;;;;;;2.05;0.70;;;20.80;46.20;;;;;;5035216;28;20028;-36
2021/05/05 07:50:16;;;;;;;2.45;0.80;;;20.80;46.10;;;;;;5034041;28;20462;-36
2021/05/05 07:52:42;;;;;;;3.50;1.13;;;20.80;46.00;;;;;;5034140;28;20041;-36
2021/05/05 07:55:10;;;;;;;1.85;0.80;;;20.80;46.00;;;;;;5035208;28;20027;-36
2021/05/05 07:57:36;;;;;;;2.38;0.80;;;20.80;45.80;;;;;;5032826;28;20052;-36
2021/05/05 08:00:07;;;;;;;3.20;1.23;;;20.80;45.90;;;;;;5033836;28;20061;-36
2021/05/05 08:02:32;;;;;;;3.15;1.35;;;20.80;45.70;;;;;;5034472;28;20032;-36
2021/05/05 08:04:58;;;;;;;2.65;0.90;;;20.80;45.60;;;;;;5033703;28;20378;-36
2021/05/05 08:07:24;;;;;;;2.63;1.17;;;20.80;45.60;;;;;;5033210;28;20037;-37
2021/05/05 08:09:50;;;;;;;2.33;0.80;;;20.80;45.50;;;;;;5027277;28;20037;-39
2021/05/05 08:12:16;;;;;;;3.47;0.75;;;20.80;45.40;;;;;;5034162;28;20025;-37
2021/05/05 08:14:43;;;;;;;1.92;0.70;;;20.80;45.20;;;;;;5034643;28;20072;-36
2021/05/05 08:17:09;;;;;;;3.47;0.93;;;20.80;45.30;;;;;;5035107;28;20049;-36
2021/05/05 08:19:35;;;;;;;1.98;0.55;;;20.80;45.10;;;;;;5034043;28;20038;-36
2021/05/05 08:22:01;;;;;;;1.88;0.65;;;20.80;45.00;;;;;;5034679;28;20022;-36
2021/05/05 08:24:28;;;;;;;1.77;0.70;;;20.80;44.90;;;;;;5033898;28;20026;-36
2021/05/05 08:26:58;;;;;;;1.15;0.70;;;20.80;44.90;;;;;;5033514;28;20033;-36
2021/05/05 08:29:27;;;;;;;1.75;0.52;;;20.80;44.80;;;;;;5030004;28;20085;-47
2021/05/05 08:31:54;;;;;;;2.53;0.88;;;20.80;44.80;;;;;;5034253;28;20116;-36
2021/05/05 08:34:20;;;;;;;2.97;0.77;;;20.80;44.70;;;;;;5033502;28;20100;-48
2021/05/05 08:36:46;;;;;;;1.55;0.50;;;20.80;44.70;;;;;;5066129;28;20129;-36
2021/05/05 08:39:11;;;;;;;0.85;0.70;;;20.80;44.60;;;;;;5034143;28;20042;-36
2021/05/05 08:41:38;;;;;;;3.42;0.70;;;20.80;44.70;;;;;;5033759;28;20032;-36
2021/05/05 08:44:17;;;;;;;2.67;0.60;;;20.80;44.60;;;;;;5033414;28;20027;-37
2021/05/05 08:46:45;;;;;;;3.35;0.70;;;20.80;44.40;;;;;;5033500;28;20474;-36
2021/05/05 08:49:11;;;;;;;2.03;0.63;;;20.80;44.40;;;;;;5034453;28;20033;-36
2021/05/05 08:51:38;;;;;;;2.22;0.80;;;20.80;44.30;;;;;;5015586;28;20039;-36
2021/05/05 08:54:07;;;;;;;1.50;0.60;;;20.80;44.20;;;;;;5032881;28;20025;-36
2021/05/05 08:56:36;;;;;;;3.65;0.75;;;20.90;44.30;;;;;;5033495;28;20035;-36
2021/05/05 08:59:13;;;;;;;2.05;0.98;;;20.80;44.20;;;;;;5034116;28;20137;-36
2021/05/05 09:01:40;;;;;;;0.93;0.47;;;20.90;44.10;;;;;;5033110;28;20486;-36
2021/05/05 09:04:07;;;;;;;2.83;0.68;;;20.80;44.00;;;;;;5034179;28;20041;-36
2021/05/05 09:06:48;;;;;;;1.77;0.60;;;20.90;44.10;;;;;;5050566;28;20041;-39
2021/05/05 09:09:33;;;;;;;2.45;0.77;;;20.90;44.00;;;;;;5051324;28;20437;-36
2021/05/05 09:12:12;;;;;;;2.78;0.68;;;20.90;43.90;;;;;;5050952;28;20044;-36
2021/05/05 09:14:57;;;;;;;1.52;0.70;;;20.90;43.80;;;;;;5048955;28;20137;-36
2021/05/05 09:17:26;;;;;;;1.85;0.50;;;20.90;43.90;;;;;;5051078;28;20037;-51
2021/05/05 09:20:07;;;;;;;1.48;0.68;;;20.90;43.80;;;;;;5051719;28;20045;-36
2021/05/05 09:22:47;;;;;;;1.83;0.68;;;20.90;43.80;;;;;;5050245;28;20087;-36
2021/05/05 09:25:50;;;;;;;2.45;0.52;;;20.90;43.80;;;;;;5049706;28;20132;-36
2021/05/05 09:28:16;;;;;;;1.92;0.70;;;20.90;43.60;;;;;;5000494;28;20064;-37
2021/05/05 09:30:43;;;;;;;3.88;0.57;;;20.90;43.50;;;;;;5050269;28;20079;-36
2021/05/05 09:33:10;;;;;;;1.35;0.60;;;20.90;43.50;;;;;;5050866;28;20079;-37
2021/05/05 09:35:38;;;;;;;1.65;0.55;;;20.90;43.50;;;;;;5033504;28;20381;-36
2021/05/05 09:38:09;;;;;;;2.10;0.80;;;20.90;43.30;;;;;;5033666;28;20033;-36
2021/05/05 09:40:37;;;;;;;2.37;0.70;;;20.90;43.20;;;;;;5043160;28;20478;-36
2021/05/05 09:43:17;;;;;;;2.17;0.70;;;20.90;43.20;;;;;;5049899;28;20033;-36
2021/05/05 09:45:43;;;;;;;2.17;0.60;;;20.90;43.10;;;;;;5032425;28;20041;-44
2021/05/05 09:48:10;;;;;;;0.98;0.50;;;20.90;43.10;;;;;;5031501;28;20026;-36
2021/05/05 09:50:44;;;;;;;1.25;0.65;;;20.90;43.00;;;;;;5032758;28;20065;-36
2021/05/05 09:53:28;;;;;;;1.52;0.57;;;20.90;42.90;;;;;;5033096;28;20021;-36
2021/05/05 09:55:53;;;;;;;0.95;0.60;;;20.90;42.90;;;;;;5033169;28;20022;-37
2021/05/05 09:58:23;;;;;;;1.25;0.60;;;20.90;42.80;;;;;;5032953;28;20142;-36
2021/05/05 10:01:04;;;;;;;2.38;0.60;;;20.90;42.80;;;;;;5032146;28;20034;-37
2021/05/05 10:03:40;;;;;;;1.60;0.60;;;20.90;42.70;;;;;;5030837;28;20498;-37
2021/05/05 10:06:22;;;;;;;1.42;0.50;;;20.90;42.70;;;;;;5031464;28;20026;-36
2021/05/05 10:08:51;;;;;;;1.35;0.40;;;20.90;42.70;;;;;;5030579;28;20025;-37
2021/05/05 10:11:22;;;;;;;1.60;0.45;;;20.90;42.70;;;;;;5032697;28;20067;-36
2021/05/05 10:13:56;;;;;;;1.60;0.50;;;21.00;43.40;;;;;;5031961;28;20079;-36
2021/05/05 10:16:23;;;;;;;3.05;0.70;;;21.00;42.60;;;;;;5026634;28;20128;-37
2021/05/05 10:18:49;;;;;;;1.45;0.45;;;21.00;42.50;;;;;;5027289;28;20113;-36
2021/05/05 10:21:18;;;;;;;3.63;0.70;;;21.00;42.50;;;;;;5030635;28;20382;-36
2021/05/05 10:23:44;;;;;;;2.03;0.70;;;21.00;42.50;;;;;;5031745;28;20029;-38
2021/05/05 10:26:11;;;;;;;2.40;0.80;;;21.00;42.50;;;;;;5032104;28;20037;-36
2021/05/05 10:28:40;;;;;;;2.28;0.77;;;21.00;42.30;;;;;;5030031;28;20037;-36
2021/05/05 10:31:15;;;;;;;1.38;0.70;;;21.00;42.40;;;;;;5032488;28;20041;-36
2021/05/05 10:33:44;;;;;;;1.55;0.50;;;21.00;42.40;;;;;;5031554;28;20026;-36
2021/05/05 10:36:29;;;;;;;1.70;0.57;;;21.00;42.30;;;;;;5031097;28;20459;-36
2021/05/05 10:38:55;;;;;;;2.05;0.50;;;21.00;42.30;;;;;;5030793;28;20029;-36
2021/05/05 10:41:22;;;;;;;3.15;0.80;;;21.00;42.40;;;;;;5032266;28;20029;-36
2021/05/05 10:43:57;;;;;;;2.78;0.85;;;21.00;42.70;;;;;;5031174;28;20083;-36
2021/05/05 10:46:38;;;;;;;3.25;1.10;;;21.00;42.30;;;;;;5030981;28;20071;-37
2021/05/05 10:49:13;;;;;;;4.68;1.08;;;20.90;42.20;;;;;;5032255;28;20026;-36
2021/05/05 10:52:03;;;;;;;5.70;1.77;;;20.90;42.20;;;;;;5031173;28;20370;-36
2021/05/05 10:55:07;;;;;;;2.97;1.00;;;21.00;42.30;;;;;;5028543;28;20037;-51
2021/05/05 10:57:33;;;;;;;3.58;1.20;;;20.90;42.20;;;;;;5011312;28;20049;-36
2021/05/05 11:00:09;;;;;;;5.38;0.85;;;20.90;42.60;;;;;;5032787;28;20042;-36
2021/05/05 11:02:40;;;;;;;3.38;0.93;;;20.90;43.30;;;;;;5030507;28;20482;-36
2021/05/05 11:05:07;;;;;;;;;;;21.00;43.30;;;;;;5030917;28;20088;-36
2021/05/05 11:07:52;;;;;;;4.82;0.95;;;20.90;43.30;;;;;;5030029;28;19905;-36
2021/05/05 11:10:40;;;;;;;1.55;1.13;;;20.90;43.40;;;;;;5031822;28;20030;-39
2021/05/05 11:13:24;;;;;;;2.63;0.95;;;20.90;43.40;;;;;;5028964;28;20509;-36
2021/05/05 11:15:55;;;;;;;4.00;0.90;;;21.00;43.50;;;;;;5030717;28;20022;-36
2021/05/05 11:20:53;;;;;;;1.38;0.75;;;20.90;43.50;;;;;;5031047;28;20124;-36
2021/05/05 11:23:42;;;;;;;1.38;0.60;;;20.90;43.50;;;;;;5032073;28;20044;-36
2021/05/05 11:26:13;;;;;;;2.83;0.80;;;20.90;43.50;;;;;;5031655;28;20025;-36
2021/05/05 11:29:01;;;;;;;1.85;0.88;;;20.90;43.60;;;;;;5029267;28;20030;-36
2021/05/05 11:31:48;;;;;;;2.72;0.80;;;21.00;43.60;;;;;;5031638;28;20029;-50
2021/05/05 11:37:05;;;;;;;1.17;0.80;;;21.00;43.70;;;;;;5030861;28;20867;-36
2021/05/05 11:39:42;;;;;;;3.97;0.88;;;21.00;43.70;;;;;;5010698;28;20101;-51
2021/05/05 11:42:14;;;;;;;2.75;0.80;;;21.00;43.80;;;;;;5011622;28;20034;-41
2021/05/05 11:44:52;;;;;;;3.03;0.80;;;21.00;44.00;;;;;;5009833;28;20030;-36
2021/05/05 11:47:23;;;;;;;2.22;0.95;;;21.00;44.00;;;;;;5012069;28;20041;-36
2021/05/05 11:49:58;;;;;;;2.28;0.70;;;21.00;44.60;;;;;;5014790;28;20029;-36
2021/05/05 11:52:27;;;;;;;2.10;0.70;;;21.00;44.40;;;;;;5031451;28;20037;-36
2021/05/05 11:54:55;;;;;;;2.85;0.70;;;21.00;44.50;;;;;;5029698;28;20032;-36
2021/05/05 11:57:22;;;;;;;3.15;0.52;;;21.00;44.60;;;;;;5031012;28;20045;-36
2021/05/05 11:59:47;;;;;;;1.50;0.70;;;21.00;44.50;;;;;;5029199;28;20111;-36
2021/05/05 12:02:18;;;;;;;1.60;0.60;;;21.00;44.50;;;;;;5030127;28;20061;-36
2021/05/05 12:04:43;;;;;;;0.80;0.50;;;21.00;44.50;;;;;;5030640;28;20025;-36
2021/05/05 12:07:13;;;;;;;1.83;0.60;;;21.00;44.50;;;;;;5027155;28;20041;-36
2021/05/05 12:09:40;;;;;;;2.53;0.77;;;20.90;44.40;;;;;;5030469;28;20041;-36
2021/05/05 12:12:29;;;;;;;1.70;0.70;;;21.00;44.50;;;;;;5030112;28;20060;-37
2021/05/05 12:15:05;;;;;;;0.88;0.55;;;21.00;44.50;;;;;;5030602;28;20494;-36
2021/05/05 12:17:34;;;;;;;3.15;0.65;;;21.00;44.40;;;;;;5029744;28;20022;-51
2021/05/05 12:20:12;;;;;;;2.70;0.80;;;21.00;44.40;;;;;;5034823;28;20033;-36
2021/05/05 12:22:58;;;;;;;0.90;0.47;;;21.00;44.30;;;;;;5034002;28;20455;-38
2021/05/05 12:25:34;;;;;;;1.60;0.60;;;21.00;44.30;;;;;;5033505;28;20029;-36
2021/05/05 12:28:13;;;;;;;2.60;0.60;;;21.00;44.20;;;;;;5033309;28;20025;-36
2021/05/05 12:30:48;;;;;;;1.45;0.60;;;21.00;44.20;;;;;;5033893;28;20037;-36
2021/05/05 12:33:37;;;;;;;1.73;0.50;;;21.00;44.10;;;;;;5034713;28;20040;-36
2021/05/05 12:36:14;;;;;;;1.52;0.88;;;21.00;44.10;;;;;;5035085;28;20030;-36
2021/05/05 12:38:45;;;;;;;0.82;0.65;;;21.00;44.10;;;;;;5033597;28;20053;-36
2021/05/05 12:41:17;;;;;;;3.63;0.60;;;21.00;44.10;;;;;;5034618;28;20037;-36
2021/05/05 12:43:50;;;;;;;2.65;0.60;;;21.00;44.10;;;;;;5033423;28;20044;-36
2021/05/05 12:46:55;;;;;;;1.13;0.65;;;21.00;44.10;;;;;;5032620;28;20030;-36
2021/05/05 12:49:29;;;;;;;1.45;0.77;;;21.00;44.10;;;;;;5032959;28;20441;-36
2021/05/05 12:51:55;;;;;;;3.13;0.50;;;21.00;44.00;;;;;;5027333;28;20467;-51
2021/05/05 12:54:28;;;;;;;1.42;0.40;;;21.00;43.90;;;;;;5032636;28;20022;-36
2021/05/05 12:56:54;;;;;;;2.15;0.50;;;20.90;43.80;;;;;;5033307;28;20021;-36
2021/05/05 12:59:29;;;;;;;2.65;0.68;;;20.90;43.90;;;;;;5031670;28;20053;-50
2021/05/05 13:02:24;;;;;;;2.55;0.57;;;20.90;43.90;;;;;;5027748;28;20041;-36
2021/05/05 13:05:04;;;;;;;1.38;0.60;;;21.00;43.80;;;;;;5013231;28;20042;-36
2021/05/05 13:07:39;;;;;;;0.68;0.43;;;21.00;43.80;;;;;;5014119;28;20466;-44